createdAt,value
2023-11-22T00:08:17.977Z,3.57
2023-11-22T00:18:19.693Z,3.53
2023-11-22T00:28:21.300Z,3.54
2023-11-22T00:38:23.098Z,3.41
2023-11-22T00:48:24.717Z,3.42
2023-11-22T00:58:26.737Z,3.64
2023-11-22T01:08:28.518Z,3.74
2023-11-22T01:18:30.226Z,3.70
2023-11-22T01:28:35.481Z,3.81
2023-11-22T01:38:40.826Z,3.79
2023-11-22T01:48:42.515Z,3.78
2023-11-22T01:58:45.293Z,3.78
2023-11-22T02:08:47.057Z,3.84
2023-11-22T02:18:49.388Z,3.69
2023-11-22T02:28:51.120Z,3.43
2023-11-22T02:38:52.928Z,3.47
2023-11-22T02:48:57.181Z,3.24
2023-11-22T02:58:59.194Z,3.21
2023-11-22T03:09:00.843Z,2.98
2023-11-22T03:19:12.029Z,2.94
2023-11-22T03:29:17.612Z,2.94
2023-11-22T03:39:19.292Z,3.06
2023-11-22T03:49:20.972Z,3.02
2023-11-22T03:59:25.271Z,3.08
2023-11-22T04:09:27.036Z,3.09
2023-11-22T04:19:29.742Z,3.16
2023-11-22T04:29:31.951Z,3.07
2023-11-22T04:39:33.625Z,3.12
2023-11-22T04:49:35.295Z,3.10
2023-11-22T04:59:37.028Z,3.13
2023-11-22T05:09:38.726Z,3.14
2023-11-22T05:19:41.989Z,3.14
2023-11-22T05:29:50.545Z,3.08
2023-11-22T05:39:59.012Z,2.98
2023-11-22T05:50:00.714Z,2.89
2023-11-22T06:00:02.410Z,2.79
2023-11-22T06:10:06.916Z,2.66
2023-11-22T06:20:10.776Z,2.61
2023-11-22T06:30:19.734Z,2.73
2023-11-22T06:40:24.772Z,3.11
2023-11-22T06:50:26.514Z,3.29
2023-11-22T07:00:29.818Z,3.67
2023-11-22T07:10:38.149Z,3.95
2023-11-22T07:20:41.321Z,4.14
2023-11-22T07:30:43.375Z,4.39
2023-11-22T07:40:45.163Z,5.76
2023-11-22T07:50:50.313Z,6.54
2023-11-22T08:00:53.024Z,8.03
2023-11-22T08:10:55.417Z,9.34
2023-11-22T08:21:00.100Z,10.26
2023-11-22T08:31:03.226Z,12.27
2023-11-22T08:41:07.370Z,13.26
2023-11-22T08:51:09.298Z,12.73
2023-11-22T09:01:18.914Z,19.42
2023-11-22T09:11:23.543Z,20.96
2023-11-22T09:21:29.779Z,20.19
2023-11-22T09:31:33.385Z,22.18
2023-11-22T09:41:36.801Z,22.16
2023-11-22T09:51:43.042Z,23.44
2023-11-22T10:01:44.797Z,20.80
2023-11-22T10:11:47.540Z,21.71
2023-11-22T10:22:07.597Z,22.48
2023-11-22T10:32:11.849Z,23.88
2023-11-22T10:42:14.124Z,25.00
2023-11-22T10:52:20.646Z,25.22
2023-11-22T11:02:24.807Z,24.95
2023-11-22T11:12:28.746Z,24.05
2023-11-22T11:22:33.063Z,23.42
2023-11-22T11:32:36.616Z,21.30
2023-11-22T11:42:45.239Z,21.61
2023-11-22T11:52:46.995Z,19.18
2023-11-22T12:02:49.956Z,20.59
2023-11-22T12:12:51.808Z,20.41
2023-11-22T12:22:57.320Z,16.23
2023-11-22T12:33:11.139Z,12.81
2023-11-22T12:43:15.405Z,13.26
2023-11-22T12:53:18.265Z,11.54
2023-11-22T13:03:20.106Z,10.77
2023-11-22T13:13:33.955Z,10.99
2023-11-22T13:23:37.244Z,12.21
2023-11-22T13:33:40.326Z,11.90
2023-11-22T13:43:42.084Z,12.23
2023-11-22T13:53:55.412Z,11.19
2023-11-22T14:03:58.314Z,10.53
2023-11-22T14:14:07.811Z,10.46
2023-11-22T14:24:36.698Z,9.13
2023-11-22T14:35:05.600Z,7.98
2023-11-22T14:54:55.699Z,7.59
2023-11-22T15:18:13.055Z,6.99
2023-11-22T15:28:33.145Z,6.77
2023-11-22T15:38:50.389Z,6.67
2023-11-22T15:59:52.177Z,6.30
2023-11-22T16:10:19.998Z,6.20
2023-11-22T16:31:32.468Z,5.77
2023-11-22T16:51:53.071Z,5.34
2023-11-22T17:01:54.912Z,5.12
2023-11-22T17:11:56.658Z,5.15
2023-11-22T17:21:58.556Z,5.12
2023-11-22T17:32:06.872Z,4.87
2023-11-22T17:42:08.859Z,4.48
2023-11-22T17:52:11.329Z,4.54
2023-11-22T18:02:14.792Z,4.55
2023-11-22T18:12:16.933Z,4.29
2023-11-22T18:22:20.151Z,4.11
2023-11-22T18:32:26.846Z,4.14
2023-11-22T18:42:30.849Z,3.83
2023-11-22T18:52:34.100Z,3.55
2023-11-22T19:02:36.711Z,3.80
2023-11-22T19:12:42.698Z,3.91
2023-11-22T19:22:45.077Z,3.93
2023-11-22T19:32:47.939Z,3.79
2023-11-22T19:42:50.462Z,3.52
2023-11-22T19:52:53.717Z,3.16
2023-11-22T20:02:59.629Z,2.72
2023-11-22T20:13:03.425Z,2.38
2023-11-22T20:23:07.279Z,1.89
2023-11-22T20:33:11.940Z,1.69
2023-11-22T20:43:14.180Z,1.48
2023-11-22T20:53:18.463Z,1.52
2023-11-22T21:03:20.378Z,1.45
2023-11-22T21:13:22.943Z,1.37
2023-11-22T21:23:25.775Z,1.28
2023-11-22T21:33:28.701Z,1.23
2023-11-22T21:43:30.488Z,0.85
2023-11-22T21:53:32.230Z,0.76
2023-11-22T22:03:34.177Z,0.85
2023-11-22T22:13:36.141Z,0.73
2023-11-22T22:23:38.894Z,0.57
2023-11-22T22:33:40.886Z,0.43
2023-11-22T22:43:42.560Z,0.39
2023-11-22T22:53:44.817Z,0.19
2023-11-22T23:03:46.621Z,0.16
2023-11-22T23:13:48.980Z,0.31
2023-11-22T23:23:50.793Z,0.19
2023-11-22T23:33:56.250Z,0.09
2023-11-22T23:43:58.241Z,0.19
2023-11-22T23:54:00.470Z,0.02
